createdAt,value
2023-03-30T00:03:35.645Z,60.23
2023-03-30T00:06:05.698Z,60.53
2023-03-30T00:08:33.976Z,60.55
2023-03-30T00:11:07.954Z,60.46
2023-03-30T00:13:37.942Z,60.48
2023-03-30T00:16:09.425Z,60.30
2023-03-30T00:18:38.330Z,60.19
2023-03-30T00:21:08.588Z,60.37
2023-03-30T00:23:38.190Z,60.53
2023-03-30T00:26:07.248Z,60.34
2023-03-30T00:28:35.865Z,60.29
2023-03-30T00:31:05.208Z,60.27
2023-03-30T00:33:44.861Z,60.41
2023-03-30T00:36:17.035Z,60.34
2023-03-30T00:38:46.167Z,60.55
2023-03-30T00:41:14.983Z,60.32
2023-03-30T00:44:02.322Z,60.45
2023-03-30T00:46:31.579Z,60.46
2023-03-30T00:49:05.094Z,60.41
2023-03-30T00:51:35.524Z,60.38
2023-03-30T00:54:10.626Z,60.60
2023-03-30T00:56:40.410Z,60.63
2023-03-30T00:59:08.918Z,60.62
2023-03-30T01:01:37.365Z,60.81
2023-03-30T01:04:08.404Z,60.99
2023-03-30T01:06:37.593Z,61.15
2023-03-30T01:09:06.016Z,61.26
2023-03-30T01:11:34.438Z,61.18
2023-03-30T01:14:06.803Z,61.35
2023-03-30T01:16:53.275Z,61.59
2023-03-30T01:19:39.814Z,61.44
2023-03-30T01:22:44.593Z,61.80
2023-03-30T01:25:50.999Z,62.25
2023-03-30T01:28:58.549Z,62.19
2023-03-30T01:32:09.846Z,61.93
2023-03-30T01:34:49.350Z,61.70
2023-03-30T01:37:37.019Z,61.64
2023-03-30T01:40:10.852Z,61.68
2023-03-30T01:42:42.985Z,61.83
2023-03-30T01:45:40.524Z,61.76
2023-03-30T01:48:15.001Z,61.77
2023-03-30T01:51:03.651Z,61.58
2023-03-30T01:53:52.561Z,61.52
2023-03-30T01:56:27.543Z,61.38
2023-03-30T01:59:11.274Z,61.48
2023-03-30T02:01:42.625Z,61.48
2023-03-30T02:04:12.731Z,61.50
2023-03-30T02:06:47.862Z,61.51
2023-03-30T02:09:20.394Z,61.49
2023-03-30T02:11:52.004Z,61.48
2023-03-30T02:14:27.364Z,61.37
2023-03-30T02:17:02.244Z,61.35
2023-03-30T02:19:30.686Z,61.32
2023-03-30T02:21:58.774Z,61.20
2023-03-30T02:24:30.923Z,61.34
2023-03-30T02:27:01.644Z,61.39
2023-03-30T02:29:32.555Z,61.57
2023-03-30T02:32:01.606Z,61.74
2023-03-30T02:35:04.055Z,61.86
2023-03-30T02:37:56.866Z,61.93
2023-03-30T02:41:04.328Z,61.71
2023-03-30T02:44:11.829Z,61.66
2023-03-30T02:47:16.441Z,61.39
2023-03-30T02:49:59.633Z,61.08
2023-03-30T02:52:42.915Z,60.82
2023-03-30T02:55:26.841Z,60.86
2023-03-30T02:58:14.770Z,60.84
2023-03-30T03:00:42.918Z,60.89
2023-03-30T03:03:33.798Z,60.78
2023-03-30T03:06:04.672Z,60.63
2023-03-30T03:08:36.974Z,60.40
2023-03-30T03:11:05.748Z,60.29
2023-03-30T03:13:36.825Z,60.18
2023-03-30T03:16:07.938Z,59.89
2023-03-30T03:18:36.126Z,59.71
2023-03-30T03:21:05.235Z,59.50
2023-03-30T03:23:35.036Z,59.20
2023-03-30T03:26:04.344Z,58.94
2023-03-30T03:28:33.927Z,58.62
2023-03-30T03:31:03.187Z,58.28
2023-03-30T03:33:32.290Z,57.86
2023-03-30T03:36:01.681Z,57.41
2023-03-30T03:38:30.922Z,57.07
2023-03-30T03:40:59.673Z,56.31
2023-03-30T03:43:27.748Z,56.14
2023-03-30T03:45:56.317Z,55.73
2023-03-30T03:48:25.273Z,55.82
2023-03-30T03:50:58.688Z,55.75
2023-03-30T03:53:28.408Z,55.59
2023-03-30T03:55:56.867Z,55.56
2023-03-30T03:58:26.289Z,55.83
2023-03-30T04:01:02.071Z,56.04
2023-03-30T04:03:31.016Z,56.72
2023-03-30T04:06:00.920Z,57.12
2023-03-30T04:08:30.019Z,57.47
2023-03-30T04:11:06.504Z,58.10
2023-03-30T04:13:35.701Z,58.60
2023-03-30T04:16:04.429Z,58.63
2023-03-30T04:18:33.592Z,58.92
2023-03-30T04:21:05.318Z,59.15
2023-03-30T04:23:35.676Z,58.65
2023-03-30T04:26:06.425Z,58.19
2023-03-30T04:28:36.064Z,57.54
2023-03-30T04:31:07.551Z,57.14
2023-03-30T04:33:42.467Z,56.89
2023-03-30T04:36:11.637Z,56.94
2023-03-30T04:38:40.983Z,56.86
2023-03-30T04:41:09.152Z,56.86
2023-03-30T04:43:37.348Z,56.81
2023-03-30T04:46:06.038Z,56.88
2023-03-30T04:48:35.194Z,56.85
2023-03-30T04:51:03.549Z,56.54
2023-03-30T04:53:32.023Z,56.46
2023-03-30T04:56:00.750Z,56.08
2023-03-30T04:58:29.416Z,55.91
2023-03-30T05:00:57.729Z,55.72
2023-03-30T05:03:26.091Z,55.30
2023-03-30T05:05:55.663Z,54.75
2023-03-30T05:08:24.033Z,54.68
2023-03-30T05:10:52.264Z,54.36
2023-03-30T05:13:20.536Z,54.07
2023-03-30T05:15:57.651Z,53.82
2023-03-30T05:18:26.194Z,53.62
2023-03-30T05:20:57.885Z,53.37
2023-03-30T05:23:26.682Z,53.35
2023-03-30T05:25:54.842Z,53.36
2023-03-30T05:28:23.334Z,53.19
2023-03-30T05:30:55.431Z,53.02
2023-03-30T05:33:23.777Z,53.00
2023-03-30T05:35:52.129Z,52.67
2023-03-30T05:38:20.307Z,52.54
2023-03-30T05:40:53.445Z,52.39
2023-03-30T05:43:24.411Z,52.18
2023-03-30T05:45:52.612Z,51.82
2023-03-30T05:48:21.457Z,51.65
2023-03-30T05:50:49.648Z,51.50
2023-03-30T05:53:18.570Z,51.55
2023-03-30T05:55:47.920Z,51.20
2023-03-30T05:58:17.356Z,51.25
2023-03-30T06:00:45.724Z,51.08
2023-03-30T06:03:13.895Z,50.95
2023-03-30T06:05:42.144Z,51.03
2023-03-30T06:08:11.698Z,50.95
2023-03-30T06:10:39.984Z,50.66
2023-03-30T06:13:08.386Z,50.49
2023-03-30T06:15:36.553Z,49.47
2023-03-30T06:18:05.034Z,49.34
2023-03-30T06:20:33.177Z,48.93
2023-03-30T06:23:01.280Z,48.22
2023-03-30T06:25:29.651Z,47.97
2023-03-30T06:27:57.818Z,47.55
2023-03-30T06:30:26.129Z,47.11
2023-03-30T06:32:54.710Z,46.92
2023-03-30T06:35:22.998Z,46.97
2023-03-30T06:37:51.051Z,46.92
2023-03-30T06:40:19.345Z,46.61
2023-03-30T06:42:49.059Z,45.74
2023-03-30T06:45:17.241Z,45.08
2023-03-30T06:47:45.503Z,44.24
2023-03-30T06:50:13.726Z,43.53
2023-03-30T06:52:41.942Z,43.08
2023-03-30T06:55:10.268Z,42.78
2023-03-30T06:57:38.756Z,42.11
2023-03-30T07:00:08.666Z,42.47
2023-03-30T07:02:37.396Z,42.60
2023-03-30T07:05:06.129Z,42.53
2023-03-30T07:07:35.029Z,42.51
2023-03-30T07:10:05.159Z,42.63
2023-03-30T07:12:33.703Z,42.56
2023-03-30T07:15:03.971Z,42.43
2023-03-30T07:17:34.672Z,42.40
2023-03-30T07:20:04.890Z,42.23
2023-03-30T07:22:33.081Z,42.19
2023-03-30T07:25:01.445Z,42.14
2023-03-30T07:27:29.549Z,41.89
2023-03-30T07:30:04.582Z,42.13
2023-03-30T07:32:39.200Z,42.40
2023-03-30T07:35:07.651Z,42.37
2023-03-30T07:37:35.797Z,42.55
2023-03-30T07:40:04.434Z,42.68
2023-03-30T07:42:32.672Z,42.84
2023-03-30T07:45:00.797Z,42.93
2023-03-30T07:47:29.496Z,42.96
2023-03-30T07:49:57.791Z,43.00
2023-03-30T07:52:26.195Z,43.15
2023-03-30T07:54:54.983Z,43.17
2023-03-30T07:57:23.509Z,43.25
2023-03-30T07:59:52.000Z,43.19
2023-03-30T08:02:20.343Z,43.12
2023-03-30T08:04:48.886Z,43.01
2023-03-30T08:07:17.209Z,42.73
2023-03-30T08:09:45.860Z,42.69
2023-03-30T08:12:14.133Z,42.80
2023-03-30T08:14:42.192Z,42.81
2023-03-30T08:17:10.878Z,42.78
2023-03-30T08:19:39.388Z,42.65
2023-03-30T08:22:07.746Z,42.45
2023-03-30T08:24:38.011Z,42.71
2023-03-30T08:27:06.356Z,42.76
2023-03-30T08:29:34.726Z,42.55
2023-03-30T08:32:02.984Z,42.47
2023-03-30T08:34:31.312Z,42.41
2023-03-30T08:36:59.556Z,42.33
2023-03-30T08:39:30.742Z,41.94
2023-03-30T08:42:21.245Z,41.74
2023-03-30T08:44:55.707Z,41.74
2023-03-30T08:47:35.037Z,41.74
2023-03-30T08:50:11.710Z,41.69
2023-03-30T08:52:40.714Z,41.51
2023-03-30T08:55:35.657Z,41.38
2023-03-30T08:58:16.957Z,40.92
2023-03-30T09:00:56.885Z,40.79
2023-03-30T09:03:42.804Z,40.43
2023-03-30T09:06:44.555Z,40.18
2023-03-30T09:09:16.550Z,39.67
2023-03-30T09:11:46.332Z,39.49
2023-03-30T09:14:31.262Z,39.57
2023-03-30T09:17:08.979Z,39.25
2023-03-30T09:19:53.843Z,38.82
2023-03-30T09:22:30.129Z,38.40
2023-03-30T09:24:58.826Z,38.45
2023-03-30T09:27:58.579Z,38.32
2023-03-30T09:30:35.011Z,37.78
2023-03-30T09:33:31.186Z,37.40
2023-03-30T09:36:08.496Z,36.67
2023-03-30T09:38:40.081Z,36.35
2023-03-30T09:41:31.519Z,36.12
2023-03-30T09:44:02.180Z,35.87
2023-03-30T09:46:31.053Z,35.59
2023-03-30T09:49:14.397Z,35.10
2023-03-30T09:52:07.585Z,35.07
2023-03-30T09:54:41.711Z,35.03
2023-03-30T09:57:32.437Z,34.76
2023-03-30T10:00:22.868Z,34.54
2023-03-30T10:02:59.735Z,34.64
2023-03-30T10:05:29.760Z,34.60
2023-03-30T10:08:06.027Z,34.45
2023-03-30T10:10:35.475Z,34.20
2023-03-30T10:13:09.447Z,33.53
2023-03-30T10:15:43.570Z,33.71
2023-03-30T10:18:27.417Z,33.79
2023-03-30T10:21:05.097Z,33.73
2023-03-30T10:23:40.711Z,33.49
2023-03-30T10:26:19.233Z,33.70
2023-03-30T10:29:02.296Z,33.54
2023-03-30T10:31:34.909Z,33.41
2023-03-30T10:34:05.757Z,33.21
2023-03-30T10:36:40.845Z,33.11
2023-03-30T10:39:18.089Z,32.68
2023-03-30T10:41:47.952Z,32.59
2023-03-30T10:44:31.957Z,32.57
2023-03-30T10:47:21.858Z,32.08
2023-03-30T10:50:18.568Z,31.63
2023-03-30T10:53:17.696Z,31.27
2023-03-30T10:56:04.246Z,30.96
2023-03-30T10:58:52.438Z,31.05
2023-03-30T11:01:20.807Z,31.15
2023-03-30T11:03:56.918Z,30.96
2023-03-30T11:06:31.562Z,31.15
2023-03-30T11:09:04.130Z,31.34
2023-03-30T11:11:41.088Z,31.59
2023-03-30T11:14:25.854Z,31.83
2023-03-30T11:17:08.163Z,32.54
2023-03-30T11:19:52.835Z,33.32
2023-03-30T11:22:43.696Z,33.73
2023-03-30T11:25:30.769Z,34.08
2023-03-30T11:28:02.248Z,34.52
2023-03-30T11:30:34.038Z,34.76
2023-03-30T11:33:36.365Z,34.87
2023-03-30T11:36:24.590Z,35.53
2023-03-30T11:39:00.994Z,35.89
2023-03-30T11:41:48.478Z,36.08
2023-03-30T11:44:18.079Z,36.45
2023-03-30T11:47:08.944Z,36.72
2023-03-30T11:50:14.202Z,36.81
2023-03-30T11:53:11.622Z,37.13
2023-03-30T11:55:49.903Z,36.92
2023-03-30T11:58:23.847Z,36.85
2023-03-30T12:01:10.703Z,36.29
2023-03-30T12:03:51.339Z,35.99
2023-03-30T12:06:31.977Z,36.09
2023-03-30T12:09:34.608Z,35.92
2023-03-30T12:12:11.480Z,35.79
2023-03-30T12:14:54.938Z,36.12
2023-03-30T12:17:33.393Z,36.28
2023-03-30T12:20:11.314Z,36.00
2023-03-30T12:23:13.913Z,36.81
2023-03-30T12:25:42.438Z,37.35
2023-03-30T12:28:17.459Z,37.75
2023-03-30T12:30:58.303Z,38.36
2023-03-30T12:33:28.500Z,39.27
2023-03-30T12:35:59.516Z,39.25
2023-03-30T12:38:37.879Z,39.51
2023-03-30T12:41:11.406Z,39.98
2023-03-30T12:44:15.597Z,40.31
2023-03-30T12:47:13.380Z,40.95
2023-03-30T12:49:47.310Z,41.60
2023-03-30T12:52:34.758Z,42.13
2023-03-30T12:55:17.007Z,42.41
2023-03-30T12:58:24.462Z,41.67
2023-03-30T13:01:14.663Z,41.84
2023-03-30T13:03:51.999Z,41.75
2023-03-30T13:06:28.813Z,41.58
2023-03-30T13:09:17.429Z,41.05
2023-03-30T13:11:50.108Z,41.02
2023-03-30T13:14:57.909Z,40.53
2023-03-30T13:17:26.334Z,39.54
2023-03-30T13:20:26.032Z,39.00
2023-03-30T13:23:01.792Z,39.14
2023-03-30T13:25:44.305Z,38.86
2023-03-30T13:28:44.802Z,39.66
2023-03-30T13:31:47.698Z,39.91
2023-03-30T13:34:31.672Z,39.95
2023-03-30T13:37:18.774Z,39.52
2023-03-30T13:40:07.252Z,39.33
2023-03-30T13:42:47.672Z,39.26
2023-03-30T13:45:27.167Z,40.36
2023-03-30T13:48:22.616Z,40.80
2023-03-30T13:51:00.780Z,40.71
2023-03-30T13:53:38.186Z,40.72
2023-03-30T13:56:09.590Z,40.75
2023-03-30T13:58:40.290Z,40.51
2023-03-30T14:01:12.199Z,40.39
2023-03-30T14:03:48.806Z,40.49
2023-03-30T14:06:22.765Z,39.86
2023-03-30T14:09:07.348Z,39.35
2023-03-30T14:11:41.557Z,39.93
2023-03-30T14:14:21.291Z,40.42
2023-03-30T14:16:51.918Z,40.40
2023-03-30T14:19:33.206Z,40.79
2023-03-30T14:22:12.692Z,41.37
2023-03-30T14:25:00.238Z,41.90
2023-03-30T14:27:39.393Z,41.73
2023-03-30T14:30:29.725Z,41.82
2023-03-30T14:33:11.631Z,41.38
2023-03-30T14:35:52.147Z,41.85
2023-03-30T14:38:33.380Z,42.32
2023-03-30T14:41:01.925Z,42.94
2023-03-30T14:43:31.762Z,43.70
2023-03-30T14:46:05.229Z,43.96
2023-03-30T14:48:37.945Z,43.96
2023-03-30T14:51:36.278Z,44.15
2023-03-30T14:54:06.584Z,44.59
2023-03-30T14:56:35.497Z,44.95
2023-03-30T14:59:03.944Z,45.20
2023-03-30T15:01:34.294Z,45.68
2023-03-30T15:04:13.839Z,45.94
2023-03-30T15:06:43.137Z,45.99
2023-03-30T15:09:23.471Z,46.26
2023-03-30T15:12:02.058Z,46.33
2023-03-30T15:14:40.887Z,46.10
2023-03-30T15:17:14.880Z,46.01
2023-03-30T15:19:43.686Z,45.93
2023-03-30T15:22:32.084Z,45.79
2023-03-30T15:25:05.706Z,45.35
2023-03-30T15:27:37.272Z,44.92
2023-03-30T15:30:06.609Z,45.04
2023-03-30T15:32:39.432Z,44.96
2023-03-30T15:35:23.802Z,44.42
2023-03-30T15:37:53.817Z,44.59
2023-03-30T15:40:38.866Z,44.68
2023-03-30T15:43:18.927Z,44.62
2023-03-30T15:45:51.325Z,44.30
2023-03-30T15:48:23.893Z,43.32
2023-03-30T15:51:12.647Z,43.08
2023-03-30T15:53:47.028Z,42.42
2023-03-30T15:56:23.719Z,42.54
2023-03-30T15:58:52.266Z,43.21
2023-03-30T16:01:20.767Z,43.59
2023-03-30T16:04:01.274Z,43.74
2023-03-30T16:06:29.344Z,43.90
2023-03-30T16:08:57.515Z,44.08
2023-03-30T16:11:26.224Z,44.68
2023-03-30T16:13:54.309Z,45.07
2023-03-30T16:16:22.738Z,45.41
2023-03-30T16:18:51.191Z,45.19
2023-03-30T16:21:19.352Z,45.41
2023-03-30T16:23:47.790Z,45.80
2023-03-30T16:26:16.285Z,45.80
2023-03-30T16:28:45.133Z,45.73
2023-03-30T16:31:22.987Z,46.28
2023-03-30T16:33:52.687Z,46.01
2023-03-30T16:36:22.753Z,45.99
2023-03-30T16:38:50.996Z,45.97
2023-03-30T16:41:21.977Z,45.89
2023-03-30T16:43:50.267Z,45.80
2023-03-30T16:46:20.723Z,45.83
2023-03-30T16:48:48.978Z,45.64
2023-03-30T16:51:17.621Z,45.57
2023-03-30T16:53:46.017Z,45.44
2023-03-30T16:56:17.693Z,45.21
2023-03-30T16:58:46.801Z,45.43
2023-03-30T17:01:15.665Z,45.42
2023-03-30T17:03:44.671Z,45.46
2023-03-30T17:06:13.370Z,45.65
2023-03-30T17:08:43.024Z,46.06
2023-03-30T17:11:11.751Z,46.11
2023-03-30T17:13:39.964Z,46.06
2023-03-30T17:16:11.449Z,45.93
2023-03-30T17:18:39.735Z,45.83
2023-03-30T17:21:08.295Z,45.52
2023-03-30T17:23:36.983Z,45.31
2023-03-30T17:26:05.424Z,44.69
2023-03-30T17:28:35.124Z,44.11
2023-03-30T17:31:07.765Z,43.88
2023-03-30T17:33:37.438Z,43.46
2023-03-30T17:36:18.636Z,43.38
2023-03-30T17:38:47.632Z,43.57
2023-03-30T17:41:18.500Z,44.18
2023-03-30T17:43:48.417Z,44.71
2023-03-30T17:46:19.701Z,45.17
2023-03-30T17:48:48.763Z,45.71
2023-03-30T17:51:16.945Z,46.09
2023-03-30T17:53:45.772Z,46.42
2023-03-30T17:56:14.091Z,46.64
2023-03-30T17:58:42.272Z,46.95
2023-03-30T18:01:13.220Z,47.34
2023-03-30T18:03:41.450Z,47.50
2023-03-30T18:06:12.169Z,47.84
2023-03-30T18:08:40.764Z,48.11
2023-03-30T18:11:09.223Z,48.31
2023-03-30T18:13:37.719Z,48.58
2023-03-30T18:16:06.282Z,48.59
2023-03-30T18:18:34.627Z,48.63
2023-03-30T18:21:04.520Z,48.59
2023-03-30T18:23:34.936Z,48.72
2023-03-30T18:26:05.593Z,48.86
2023-03-30T18:28:35.727Z,48.98
2023-03-30T18:31:04.300Z,48.98
2023-03-30T18:33:32.873Z,49.13
2023-03-30T18:36:01.739Z,49.29
2023-03-30T18:38:30.197Z,49.21
2023-03-30T18:40:58.534Z,49.40
2023-03-30T18:43:27.386Z,49.69
2023-03-30T18:46:00.845Z,49.87
2023-03-30T18:48:30.157Z,50.09
2023-03-30T18:50:58.466Z,50.42
2023-03-30T18:53:28.308Z,50.66
2023-03-30T18:55:58.664Z,50.99
2023-03-30T18:58:29.858Z,51.20
2023-03-30T19:00:58.216Z,51.60
2023-03-30T19:03:27.591Z,52.11
2023-03-30T19:05:55.996Z,52.54
2023-03-30T19:08:26.311Z,52.77
2023-03-30T19:10:57.408Z,53.04
2023-03-30T19:13:27.041Z,53.30
2023-03-30T19:15:55.388Z,53.59
2023-03-30T19:18:23.483Z,53.61
2023-03-30T19:20:52.456Z,53.77
2023-03-30T19:23:20.664Z,53.72
2023-03-30T19:25:49.289Z,53.75
2023-03-30T19:28:19.262Z,53.77
2023-03-30T19:30:48.870Z,53.76
2023-03-30T19:33:17.570Z,53.74
2023-03-30T19:35:46.480Z,53.99
2023-03-30T19:38:15.845Z,53.99
2023-03-30T19:40:44.010Z,54.00
2023-03-30T19:43:12.224Z,54.16
2023-03-30T19:45:40.427Z,54.17
2023-03-30T19:48:08.743Z,54.30
2023-03-30T19:50:37.257Z,54.33
2023-03-30T19:53:05.471Z,54.30
2023-03-30T19:55:34.369Z,54.42
2023-03-30T19:58:02.679Z,54.36
2023-03-30T20:00:30.920Z,54.44
2023-03-30T20:02:59.058Z,54.39
2023-03-30T20:05:27.443Z,54.39
2023-03-30T20:07:55.608Z,54.39
2023-03-30T20:10:25.785Z,54.49
2023-03-30T20:12:54.489Z,54.62
2023-03-30T20:15:25.008Z,54.42
2023-03-30T20:17:53.456Z,54.52
2023-03-30T20:20:22.679Z,54.48
2023-03-30T20:22:52.082Z,54.45
2023-03-30T20:25:22.270Z,54.50
2023-03-30T20:27:50.895Z,54.55
2023-03-30T20:30:20.189Z,54.57
2023-03-30T20:32:59.681Z,54.51
2023-03-30T20:35:33.015Z,54.57
2023-03-30T20:38:01.782Z,54.60
2023-03-30T20:40:30.672Z,54.49
2023-03-30T20:42:58.904Z,54.38
2023-03-30T20:45:27.294Z,54.53
2023-03-30T20:47:55.738Z,54.45
2023-03-30T20:50:24.223Z,54.41
2023-03-30T20:52:52.918Z,54.49
2023-03-30T20:55:21.068Z,54.53
2023-03-30T20:57:49.265Z,54.32
2023-03-30T21:00:18.551Z,54.31
2023-03-30T21:02:46.753Z,54.30
2023-03-30T21:05:15.127Z,54.24
2023-03-30T21:07:44.523Z,54.20
2023-03-30T21:10:12.880Z,54.18
2023-03-30T21:12:40.963Z,54.24
2023-03-30T21:15:09.677Z,54.08
2023-03-30T21:17:37.804Z,53.92
2023-03-30T21:20:06.652Z,54.00
2023-03-30T21:22:35.545Z,53.89
2023-03-30T21:25:03.824Z,54.02
2023-03-30T21:27:32.091Z,53.95
2023-03-30T21:30:00.258Z,53.95
2023-03-30T21:32:30.118Z,53.88
2023-03-30T21:34:59.869Z,53.90
2023-03-30T21:37:28.214Z,53.98
2023-03-30T21:39:56.493Z,53.61
2023-03-30T21:42:24.638Z,53.51
2023-03-30T21:44:53.601Z,53.40
2023-03-30T21:47:21.658Z,53.31
2023-03-30T21:49:50.984Z,53.27
2023-03-30T21:52:19.194Z,53.17
2023-03-30T21:54:47.486Z,53.14
2023-03-30T21:57:15.732Z,53.01
2023-03-30T21:59:44.216Z,52.93
2023-03-30T22:02:12.512Z,52.64
2023-03-30T22:04:43.743Z,52.33
2023-03-30T22:07:12.953Z,51.78
2023-03-30T22:09:41.291Z,51.41
2023-03-30T22:12:09.396Z,50.97
2023-03-30T22:14:38.061Z,50.64
2023-03-30T22:17:06.758Z,50.27
2023-03-30T22:19:34.883Z,50.03
2023-03-30T22:22:03.188Z,49.63
2023-03-30T22:24:31.466Z,49.07
2023-03-30T22:26:59.666Z,48.60
2023-03-30T22:29:28.028Z,48.30
2023-03-30T22:31:56.315Z,47.83
2023-03-30T22:34:24.778Z,47.43
2023-03-30T22:36:52.924Z,47.27
2023-03-30T22:39:21.092Z,46.93
2023-03-30T22:41:49.362Z,46.80
2023-03-30T22:44:17.993Z,46.87
2023-03-30T22:46:47.280Z,46.94
2023-03-30T22:49:15.477Z,47.03
2023-03-30T22:51:43.767Z,47.23
2023-03-30T22:54:11.865Z,47.89
2023-03-30T22:56:39.921Z,48.27
2023-03-30T22:59:08.111Z,48.30
2023-03-30T23:01:36.763Z,48.40
2023-03-30T23:04:06.642Z,48.59
2023-03-30T23:06:35.056Z,48.67
2023-03-30T23:09:04.477Z,48.47
2023-03-30T23:11:34.349Z,48.01
2023-03-30T23:14:02.723Z,47.42
2023-03-30T23:16:34.610Z,46.95
2023-03-30T23:19:04.445Z,46.29
2023-03-30T23:21:32.631Z,45.60
2023-03-30T23:24:02.527Z,44.41
2023-03-30T23:26:30.914Z,43.07
2023-03-30T23:28:59.037Z,42.42
2023-03-30T23:31:27.301Z,42.06
2023-03-30T23:33:56.737Z,41.95
2023-03-30T23:36:25.269Z,41.32
2023-03-30T23:38:53.463Z,40.66
2023-03-30T23:41:22.229Z,40.16
2023-03-30T23:43:50.428Z,39.58
2023-03-30T23:46:20.132Z,38.57
2023-03-30T23:48:48.780Z,37.73
2023-03-30T23:51:16.937Z,37.05
2023-03-30T23:53:45.138Z,36.89
2023-03-30T23:56:13.508Z,37.22
2023-03-30T23:58:41.846Z,37.71
